sensor_id;sensor_type;location;lat;lon;timestamp;temperature;humidity
9984;DHT22;16737;50.932;6.780;2022-12-19T00:01:23;2.40;96.10
9984;DHT22;16737;50.932;6.780;2022-12-19T00:03:53;2.40;96.20
9984;DHT22;16737;50.932;6.780;2022-12-19T00:06:22;2.40;96.20
9984;DHT22;16737;50.932;6.780;2022-12-19T00:08:53;2.40;96.20
9984;DHT22;16737;50.932;6.780;2022-12-19T00:11:25;2.40;96.20
9984;DHT22;16737;50.932;6.780;2022-12-19T00:13:55;2.50;96.20
9984;DHT22;16737;50.932;6.780;2022-12-19T00:16:25;2.50;96.20
9984;DHT22;16737;50.932;6.780;2022-12-19T00:18:56;2.40;96.20
9984;DHT22;16737;50.932;6.780;2022-12-19T00:21:27;2.50;96.30
9984;DHT22;16737;50.932;6.780;2022-12-19T00:23:55;2.50;96.30
9984;DHT22;16737;50.932;6.780;2022-12-19T00:26:24;2.50;96.30
9984;DHT22;16737;50.932;6.780;2022-12-19T00:28:53;2.50;96.30
9984;DHT22;16737;50.932;6.780;2022-12-19T00:31:24;2.50;96.30
9984;DHT22;16737;50.932;6.780;2022-12-19T00:33:53;2.50;96.30
9984;DHT22;16737;50.932;6.780;2022-12-19T00:36:22;2.50;96.30
9984;DHT22;16737;50.932;6.780;2022-12-19T00:38:51;2.60;96.40
9984;DHT22;16737;50.932;6.780;2022-12-19T00:41:21;2.50;96.30
9984;DHT22;16737;50.932;6.780;2022-12-19T00:43:56;2.60;96.40
9984;DHT22;16737;50.932;6.780;2022-12-19T00:46:24;2.60;96.40
9984;DHT22;16737;50.932;6.780;2022-12-19T00:48:53;2.60;96.40
9984;DHT22;16737;50.932;6.780;2022-12-19T00:51:22;2.60;96.40
9984;DHT22;16737;50.932;6.780;2022-12-19T00:53:51;2.60;96.40
9984;DHT22;16737;50.932;6.780;2022-12-19T00:56:23;2.60;96.50
9984;DHT22;16737;50.932;6.780;2022-12-19T00:58:53;2.70;96.50
9984;DHT22;16737;50.932;6.780;2022-12-19T01:01:25;2.70;96.60
9984;DHT22;16737;50.932;6.780;2022-12-19T01:03:53;2.70;96.60
9984;DHT22;16737;50.932;6.780;2022-12-19T01:06:20;2.70;96.60
9984;DHT22;16737;50.932;6.780;2022-12-19T01:08:48;2.70;96.60
9984;DHT22;16737;50.932;6.780;2022-12-19T01:11:15;2.70;96.70
9984;DHT22;16737;50.932;6.780;2022-12-19T01:13:43;2.70;96.60
9984;DHT22;16737;50.932;6.780;2022-12-19T01:16:10;2.80;96.70
9984;DHT22;16737;50.932;6.780;2022-12-19T01:18:40;2.80;97.10
9984;DHT22;16737;50.932;6.780;2022-12-19T01:21:09;2.80;96.80
9984;DHT22;16737;50.932;6.780;2022-12-19T01:23:36;2.80;96.80
9984;DHT22;16737;50.932;6.780;2022-12-19T01:26:03;2.80;96.80
9984;DHT22;16737;50.932;6.780;2022-12-19T01:28:30;2.80;96.90
9984;DHT22;16737;50.932;6.780;2022-12-19T01:30:57;2.80;97.00
9984;DHT22;16737;50.932;6.780;2022-12-19T01:33:24;2.80;97.00
9984;DHT22;16737;50.932;6.780;2022-12-19T01:35:53;2.90;97.10
9984;DHT22;16737;50.932;6.780;2022-12-19T01:38:19;2.90;97.10
9984;DHT22;16737;50.932;6.780;2022-12-19T01:40:50;2.90;97.20
9984;DHT22;16737;50.932;6.780;2022-12-19T01:43:18;3.00;97.20
9984;DHT22;16737;50.932;6.780;2022-12-19T01:45:46;2.90;97.20
9984;DHT22;16737;50.932;6.780;2022-12-19T01:48:30;3.00;97.20
9984;DHT22;16737;50.932;6.780;2022-12-19T01:51:03;3.00;97.20
9984;DHT22;16737;50.932;6.780;2022-12-19T01:53:42;3.10;97.20
9984;DHT22;16737;50.932;6.780;2022-12-19T01:56:12;3.10;97.20
9984;DHT22;16737;50.932;6.780;2022-12-19T01:58:42;3.10;97.20
9984;DHT22;16737;50.932;6.780;2022-12-19T02:01:11;3.10;97.20
9984;DHT22;16737;50.932;6.780;2022-12-19T02:03:39;3.20;97.20
9984;DHT22;16737;50.932;6.780;2022-12-19T02:06:09;3.20;97.20
9984;DHT22;16737;50.932;6.780;2022-12-19T02:08:44;3.20;97.20
9984;DHT22;16737;50.932;6.780;2022-12-19T02:11:12;3.20;97.10
9984;DHT22;16737;50.932;6.780;2022-12-19T02:13:40;3.20;97.10
9984;DHT22;16737;50.932;6.780;2022-12-19T02:16:15;3.20;97.00
9984;DHT22;16737;50.932;6.780;2022-12-19T02:18:54;3.30;97.10
9984;DHT22;16737;50.932;6.780;2022-12-19T02:21:38;3.30;97.10
9984;DHT22;16737;50.932;6.780;2022-12-19T02:24:43;3.30;97.00
9984;DHT22;16737;50.932;6.780;2022-12-19T02:27:42;3.30;97.20
9984;DHT22;16737;50.932;6.780;2022-12-19T02:30:36;3.30;97.10
9984;DHT22;16737;50.932;6.780;2022-12-19T02:33:25;3.30;97.10
9984;DHT22;16737;50.932;6.780;2022-12-19T02:36:04;3.30;97.00
9984;DHT22;16737;50.932;6.780;2022-12-19T02:38:38;3.30;97.40
9984;DHT22;16737;50.932;6.780;2022-12-19T02:41:13;3.30;97.00
9984;DHT22;16737;50.932;6.780;2022-12-19T02:43:46;3.30;97.00
9984;DHT22;16737;50.932;6.780;2022-12-19T02:46:18;3.30;97.00
9984;DHT22;16737;50.932;6.780;2022-12-19T02:48:46;3.40;97.00
9984;DHT22;16737;50.932;6.780;2022-12-19T02:51:14;3.30;97.00
9984;DHT22;16737;50.932;6.780;2022-12-19T02:53:41;3.40;97.10
9984;DHT22;16737;50.932;6.780;2022-12-19T02:56:27;3.40;97.10
9984;DHT22;16737;50.932;6.780;2022-12-19T03:02:05;3.40;97.10
9984;DHT22;16737;50.932;6.780;2022-12-19T03:04:44;3.40;97.10
9984;DHT22;16737;50.932;6.780;2022-12-19T03:07:23;3.50;97.10
9984;DHT22;16737;50.932;6.780;2022-12-19T03:10:02;3.50;97.10
9984;DHT22;16737;50.932;6.780;2022-12-19T03:12:42;3.50;97.10
9984;DHT22;16737;50.932;6.780;2022-12-19T03:15:13;3.50;97.10
9984;DHT22;16737;50.932;6.780;2022-12-19T03:17:42;3.50;97.10
9984;DHT22;16737;50.932;6.780;2022-12-19T03:20:17;3.50;97.20
9984;DHT22;16737;50.932;6.780;2022-12-19T03:22:50;3.60;97.20
9984;DHT22;16737;50.932;6.780;2022-12-19T03:25:19;3.60;97.20
9984;DHT22;16737;50.932;6.780;2022-12-19T03:27:49;3.60;97.20
9984;DHT22;16737;50.932;6.780;2022-12-19T03:30:18;3.60;97.20
9984;DHT22;16737;50.932;6.780;2022-12-19T03:32:48;3.60;97.20
9984;DHT22;16737;50.932;6.780;2022-12-19T03:35:18;3.70;97.30
9984;DHT22;16737;50.932;6.780;2022-12-19T03:37:48;3.70;97.40
9984;DHT22;16737;50.932;6.780;2022-12-19T03:40:19;3.70;97.30
9984;DHT22;16737;50.932;6.780;2022-12-19T03:42:49;3.70;97.40
9984;DHT22;16737;50.932;6.780;2022-12-19T03:45:42;3.70;97.30
9984;DHT22;16737;50.932;6.780;2022-12-19T03:48:20;3.70;97.40
9984;DHT22;16737;50.932;6.780;2022-12-19T03:50:59;3.70;97.40
9984;DHT22;16737;50.932;6.780;2022-12-19T03:53:39;3.70;97.40
9984;DHT22;16737;50.932;6.780;2022-12-19T03:56:16;3.70;97.40
9984;DHT22;16737;50.932;6.780;2022-12-19T03:58:53;3.70;97.50
9984;DHT22;16737;50.932;6.780;2022-12-19T04:01:27;3.70;97.50
9984;DHT22;16737;50.932;6.780;2022-12-19T04:03:59;3.70;97.50
9984;DHT22;16737;50.932;6.780;2022-12-19T04:06:30;3.70;97.50
9984;DHT22;16737;50.932;6.780;2022-12-19T04:09:00;3.70;97.50
9984;DHT22;16737;50.932;6.780;2022-12-19T04:11:32;3.70;97.60
9984;DHT22;16737;50.932;6.780;2022-12-19T04:14:07;3.70;97.60
9984;DHT22;16737;50.932;6.780;2022-12-19T04:16:42;3.70;97.70
9984;DHT22;16737;50.932;6.780;2022-12-19T04:19:17;3.80;98.10
9984;DHT22;16737;50.932;6.780;2022-12-19T04:21:50;3.80;97.80
9984;DHT22;16737;50.932;6.780;2022-12-19T04:24:25;3.80;97.90
9984;DHT22;16737;50.932;6.780;2022-12-19T04:26:55;3.80;97.90
9984;DHT22;16737;50.932;6.780;2022-12-19T04:29:25;3.80;97.90
9984;DHT22;16737;50.932;6.780;2022-12-19T04:31:56;3.80;98.00
9984;DHT22;16737;50.932;6.780;2022-12-19T04:34:26;3.90;98.00
9984;DHT22;16737;50.932;6.780;2022-12-19T04:36:59;3.90;98.10
9984;DHT22;16737;50.932;6.780;2022-12-19T04:39:29;3.90;98.10
9984;DHT22;16737;50.932;6.780;2022-12-19T04:41:56;3.90;98.20
9984;DHT22;16737;50.932;6.780;2022-12-19T04:44:23;4.00;98.20
9984;DHT22;16737;50.932;6.780;2022-12-19T04:46:50;4.00;98.20
9984;DHT22;16737;50.932;6.780;2022-12-19T04:49:17;4.00;98.20
9984;DHT22;16737;50.932;6.780;2022-12-19T04:51:45;4.10;98.40
9984;DHT22;16737;50.932;6.780;2022-12-19T04:54:12;4.10;98.40
9984;DHT22;16737;50.932;6.780;2022-12-19T04:56:39;4.10;98.40
9984;DHT22;16737;50.932;6.780;2022-12-19T04:59:06;4.10;98.40
9984;DHT22;16737;50.932;6.780;2022-12-19T05:01:33;4.10;98.40
9984;DHT22;16737;50.932;6.780;2022-12-19T05:04:00;4.20;98.40
9984;DHT22;16737;50.932;6.780;2022-12-19T05:06:27;4.20;98.40
9984;DHT22;16737;50.932;6.780;2022-12-19T05:08:55;4.20;98.40
9984;DHT22;16737;50.932;6.780;2022-12-19T05:11:22;4.20;98.40
9984;DHT22;16737;50.932;6.780;2022-12-19T05:13:50;4.20;98.40
9984;DHT22;16737;50.932;6.780;2022-12-19T05:16:17;4.20;98.40
9984;DHT22;16737;50.932;6.780;2022-12-19T05:18:45;4.30;98.40
9984;DHT22;16737;50.932;6.780;2022-12-19T05:21:12;4.30;98.50
9984;DHT22;16737;50.932;6.780;2022-12-19T05:23:39;4.30;98.50
9984;DHT22;16737;50.932;6.780;2022-12-19T05:26:10;4.30;98.50
9984;DHT22;16737;50.932;6.780;2022-12-19T05:28:38;4.30;98.50
9984;DHT22;16737;50.932;6.780;2022-12-19T05:31:07;4.30;98.40
9984;DHT22;16737;50.932;6.780;2022-12-19T05:33:36;4.30;98.50
9984;DHT22;16737;50.932;6.780;2022-12-19T05:36:05;4.30;98.50
9984;DHT22;16737;50.932;6.780;2022-12-19T05:38:34;4.30;98.50
9984;DHT22;16737;50.932;6.780;2022-12-19T05:41:06;4.30;98.50
9984;DHT22;16737;50.932;6.780;2022-12-19T05:43:35;4.40;98.50
9984;DHT22;16737;50.932;6.780;2022-12-19T05:46:03;4.40;98.50
9984;DHT22;16737;50.932;6.780;2022-12-19T05:48:30;4.40;98.50
9984;DHT22;16737;50.932;6.780;2022-12-19T05:50:57;4.40;98.60
9984;DHT22;16737;50.932;6.780;2022-12-19T05:53:25;4.40;98.60
9984;DHT22;16737;50.932;6.780;2022-12-19T05:56:01;4.40;98.60
9984;DHT22;16737;50.932;6.780;2022-12-19T05:58:31;4.40;98.70
9984;DHT22;16737;50.932;6.780;2022-12-19T06:01:02;4.50;98.70
9984;DHT22;16737;50.932;6.780;2022-12-19T06:03:29;4.50;98.70
9984;DHT22;16737;50.932;6.780;2022-12-19T06:05:56;4.50;98.70
9984;DHT22;16737;50.932;6.780;2022-12-19T06:08:23;4.50;98.70
9984;DHT22;16737;50.932;6.780;2022-12-19T06:10:50;4.50;98.70
9984;DHT22;16737;50.932;6.780;2022-12-19T06:13:17;4.50;98.70
9984;DHT22;16737;50.932;6.780;2022-12-19T06:15:45;4.60;98.80
9984;DHT22;16737;50.932;6.780;2022-12-19T06:18:12;4.60;98.80
9984;DHT22;16737;50.932;6.780;2022-12-19T06:20:39;4.60;98.80
9984;DHT22;16737;50.932;6.780;2022-12-19T06:23:06;4.60;98.90
9984;DHT22;16737;50.932;6.780;2022-12-19T06:25:33;4.70;98.90
9984;DHT22;16737;50.932;6.780;2022-12-19T06:28:00;4.70;98.90
9984;DHT22;16737;50.932;6.780;2022-12-19T06:30:27;4.70;98.90
9984;DHT22;16737;50.932;6.780;2022-12-19T06:32:56;4.70;99.00
9984;DHT22;16737;50.932;6.780;2022-12-19T06:35:22;4.80;99.10
9984;DHT22;16737;50.932;6.780;2022-12-19T06:37:49;4.80;99.10
9984;DHT22;16737;50.932;6.780;2022-12-19T06:40:16;4.80;99.10
9984;DHT22;16737;50.932;6.780;2022-12-19T06:42:57;4.90;99.20
9984;DHT22;16737;50.932;6.780;2022-12-19T06:45:24;4.90;99.20
9984;DHT22;16737;50.932;6.780;2022-12-19T06:47:51;4.90;99.10
9984;DHT22;16737;50.932;6.780;2022-12-19T06:50:19;4.90;99.50
9984;DHT22;16737;50.932;6.780;2022-12-19T06:52:46;5.00;99.20
9984;DHT22;16737;50.932;6.780;2022-12-19T06:55:13;5.00;99.20
9984;DHT22;16737;50.932;6.780;2022-12-19T06:57:40;5.00;99.20
9984;DHT22;16737;50.932;6.780;2022-12-19T07:00:11;5.10;99.30
9984;DHT22;16737;50.932;6.780;2022-12-19T07:02:41;5.10;99.30
9984;DHT22;16737;50.932;6.780;2022-12-19T07:05:11;5.10;99.30
9984;DHT22;16737;50.932;6.780;2022-12-19T07:07:40;5.20;99.30
9984;DHT22;16737;50.932;6.780;2022-12-19T07:10:08;5.20;99.30
9984;DHT22;16737;50.932;6.780;2022-12-19T07:12:35;5.20;99.30
9984;DHT22;16737;50.932;6.780;2022-12-19T07:15:03;5.20;99.30
9984;DHT22;16737;50.932;6.780;2022-12-19T07:17:30;5.30;99.40
9984;DHT22;16737;50.932;6.780;2022-12-19T07:19:57;5.30;99.40
9984;DHT22;16737;50.932;6.780;2022-12-19T07:22:26;5.30;99.30
9984;DHT22;16737;50.932;6.780;2022-12-19T07:24:58;5.30;99.40
9984;DHT22;16737;50.932;6.780;2022-12-19T07:27:27;5.40;99.40
9984;DHT22;16737;50.932;6.780;2022-12-19T07:29:54;5.40;99.40
9984;DHT22;16737;50.932;6.780;2022-12-19T07:32:21;5.40;99.40
9984;DHT22;16737;50.932;6.780;2022-12-19T07:34:48;5.40;99.40
9984;DHT22;16737;50.932;6.780;2022-12-19T07:37:17;5.50;99.50
9984;DHT22;16737;50.932;6.780;2022-12-19T07:39:46;5.50;99.40
9984;DHT22;16737;50.932;6.780;2022-12-19T07:42:14;5.50;99.40
9984;DHT22;16737;50.932;6.780;2022-12-19T07:44:41;5.50;99.50
9984;DHT22;16737;50.932;6.780;2022-12-19T07:47:08;5.50;99.50
9984;DHT22;16737;50.932;6.780;2022-12-19T07:49:35;5.60;99.60
9984;DHT22;16737;50.932;6.780;2022-12-19T07:52:02;5.60;99.60
9984;DHT22;16737;50.932;6.780;2022-12-19T07:54:29;5.60;99.60
9984;DHT22;16737;50.932;6.780;2022-12-19T07:56:56;5.60;99.70
9984;DHT22;16737;50.932;6.780;2022-12-19T07:59:24;5.60;99.70
9984;DHT22;16737;50.932;6.780;2022-12-19T08:01:51;5.70;99.80
9984;DHT22;16737;50.932;6.780;2022-12-19T08:04:18;5.70;99.70
9984;DHT22;16737;50.932;6.780;2022-12-19T08:06:45;5.70;99.80
9984;DHT22;16737;50.932;6.780;2022-12-19T08:09:12;5.70;99.70
9984;DHT22;16737;50.932;6.780;2022-12-19T08:11:39;5.70;99.70
9984;DHT22;16737;50.932;6.780;2022-12-19T08:14:06;5.80;99.80
9984;DHT22;16737;50.932;6.780;2022-12-19T08:16:34;5.80;99.80
9984;DHT22;16737;50.932;6.780;2022-12-19T08:19:02;5.80;99.80
9984;DHT22;16737;50.932;6.780;2022-12-19T08:21:29;5.80;99.80
9984;DHT22;16737;50.932;6.780;2022-12-19T08:23:56;5.80;99.80
9984;DHT22;16737;50.932;6.780;2022-12-19T08:26:23;5.90;99.80
9984;DHT22;16737;50.932;6.780;2022-12-19T08:28:50;5.90;99.80
9984;DHT22;16737;50.932;6.780;2022-12-19T08:31:18;5.90;99.90
9984;DHT22;16737;50.932;6.780;2022-12-19T08:33:47;5.90;99.80
9984;DHT22;16737;50.932;6.780;2022-12-19T08:36:15;6.00;99.90
9984;DHT22;16737;50.932;6.780;2022-12-19T08:38:44;6.00;99.90
9984;DHT22;16737;50.932;6.780;2022-12-19T08:41:12;6.00;99.90
9984;DHT22;16737;50.932;6.780;2022-12-19T08:43:40;6.00;99.90
9984;DHT22;16737;50.932;6.780;2022-12-19T08:46:07;6.00;99.90
9984;DHT22;16737;50.932;6.780;2022-12-19T08:48:35;6.00;99.90
9984;DHT22;16737;50.932;6.780;2022-12-19T08:51:06;6.10;99.90
9984;DHT22;16737;50.932;6.780;2022-12-19T08:53:35;6.10;99.90
9984;DHT22;16737;50.932;6.780;2022-12-19T08:56:07;6.10;99.90
9984;DHT22;16737;50.932;6.780;2022-12-19T08:58:37;6.10;99.90
9984;DHT22;16737;50.932;6.780;2022-12-19T09:01:07;6.10;99.90
9984;DHT22;16737;50.932;6.780;2022-12-19T09:03:37;6.10;99.90
9984;DHT22;16737;50.932;6.780;2022-12-19T09:06:08;6.10;99.90
9984;DHT22;16737;50.932;6.780;2022-12-19T09:08:37;6.10;99.90
9984;DHT22;16737;50.932;6.780;2022-12-19T09:11:07;6.10;99.90
9984;DHT22;16737;50.932;6.780;2022-12-19T09:13:37;6.10;99.90
9984;DHT22;16737;50.932;6.780;2022-12-19T09:16:06;6.10;99.90
9984;DHT22;16737;50.932;6.780;2022-12-19T09:18:36;6.10;99.90
9984;DHT22;16737;50.932;6.780;2022-12-19T09:21:04;6.10;99.90
9984;DHT22;16737;50.932;6.780;2022-12-19T09:23:33;6.10;99.90
9984;DHT22;16737;50.932;6.780;2022-12-19T09:26:02;6.10;99.90
9984;DHT22;16737;50.932;6.780;2022-12-19T09:28:32;6.10;99.90
9984;DHT22;16737;50.932;6.780;2022-12-19T09:31:02;6.20;99.90
9984;DHT22;16737;50.932;6.780;2022-12-19T09:33:32;6.20;99.90
9984;DHT22;16737;50.932;6.780;2022-12-19T09:36:01;6.20;99.90
9984;DHT22;16737;50.932;6.780;2022-12-19T09:38:30;6.30;99.90
9984;DHT22;16737;50.932;6.780;2022-12-19T09:41:08;6.30;99.90
9984;DHT22;16737;50.932;6.780;2022-12-19T09:44:00;6.40;99.90
9984;DHT22;16737;50.932;6.780;2022-12-19T09:46:41;6.40;99.90
9984;DHT22;16737;50.932;6.780;2022-12-19T09:49:15;6.40;99.90
9984;DHT22;16737;50.932;6.780;2022-12-19T09:51:50;6.50;99.90
9984;DHT22;16737;50.932;6.780;2022-12-19T09:54:26;6.50;99.90
9984;DHT22;16737;50.932;6.780;2022-12-19T09:57:04;6.60;99.90
9984;DHT22;16737;50.932;6.780;2022-12-19T09:59:43;6.60;99.90
9984;DHT22;16737;50.932;6.780;2022-12-19T10:02:27;6.70;99.90
9984;DHT22;16737;50.932;6.780;2022-12-19T10:05:11;6.70;99.90
9984;DHT22;16737;50.932;6.780;2022-12-19T10:07:42;6.70;99.90
9984;DHT22;16737;50.932;6.780;2022-12-19T10:10:15;6.80;99.90
9984;DHT22;16737;50.932;6.780;2022-12-19T10:12:57;6.80;99.90
9984;DHT22;16737;50.932;6.780;2022-12-19T10:15:43;6.90;99.90
9984;DHT22;16737;50.932;6.780;2022-12-19T10:18:29;6.90;99.90
9984;DHT22;16737;50.932;6.780;2022-12-19T10:21:07;7.00;99.90
9984;DHT22;16737;50.932;6.780;2022-12-19T10:24:04;7.00;99.90
9984;DHT22;16737;50.932;6.780;2022-12-19T10:26:47;7.10;99.90
9984;DHT22;16737;50.932;6.780;2022-12-19T10:29:41;7.10;99.90
9984;DHT22;16737;50.932;6.780;2022-12-19T10:32:24;7.10;99.90
9984;DHT22;16737;50.932;6.780;2022-12-19T10:34:57;7.10;99.90
9984;DHT22;16737;50.932;6.780;2022-12-19T10:37:27;7.10;99.90
9984;DHT22;16737;50.932;6.780;2022-12-19T10:40:09;7.10;99.90
9984;DHT22;16737;50.932;6.780;2022-12-19T10:42:47;7.10;99.90
9984;DHT22;16737;50.932;6.780;2022-12-19T10:45:19;7.20;99.90
9984;DHT22;16737;50.932;6.780;2022-12-19T10:47:50;7.10;99.90
9984;DHT22;16737;50.932;6.780;2022-12-19T10:50:24;7.20;99.90
9984;DHT22;16737;50.932;6.780;2022-12-19T10:52:55;7.20;99.90
9984;DHT22;16737;50.932;6.780;2022-12-19T10:55:41;7.20;99.90
9984;DHT22;16737;50.932;6.780;2022-12-19T10:58:21;7.20;99.90
9984;DHT22;16737;50.932;6.780;2022-12-19T11:01:01;7.20;99.90
9984;DHT22;16737;50.932;6.780;2022-12-19T11:03:31;7.20;99.90
9984;DHT22;16737;50.932;6.780;2022-12-19T11:06:01;7.20;99.90
9984;DHT22;16737;50.932;6.780;2022-12-19T11:08:30;7.20;99.90
9984;DHT22;16737;50.932;6.780;2022-12-19T11:11:10;7.30;99.90
9984;DHT22;16737;50.932;6.780;2022-12-19T11:13:42;7.30;99.90
9984;DHT22;16737;50.932;6.780;2022-12-19T11:16:11;7.30;99.90
9984;DHT22;16737;50.932;6.780;2022-12-19T11:18:47;7.30;99.90
9984;DHT22;16737;50.932;6.780;2022-12-19T11:21:17;7.30;99.90
9984;DHT22;16737;50.932;6.780;2022-12-19T11:23:49;7.30;99.90
9984;DHT22;16737;50.932;6.780;2022-12-19T11:26:34;7.30;99.90
9984;DHT22;16737;50.932;6.780;2022-12-19T11:29:20;7.40;99.90
9984;DHT22;16737;50.932;6.780;2022-12-19T11:31:53;7.40;99.90
9984;DHT22;16737;50.932;6.780;2022-12-19T11:34:25;7.40;99.90
9984;DHT22;16737;50.932;6.780;2022-12-19T11:36:57;7.40;99.90
9984;DHT22;16737;50.932;6.780;2022-12-19T11:39:34;7.40;99.90
9984;DHT22;16737;50.932;6.780;2022-12-19T11:42:11;7.40;99.90
9984;DHT22;16737;50.932;6.780;2022-12-19T11:44:50;7.40;99.90
9984;DHT22;16737;50.932;6.780;2022-12-19T11:47:30;7.40;99.90
9984;DHT22;16737;50.932;6.780;2022-12-19T11:50:12;7.40;99.90
9984;DHT22;16737;50.932;6.780;2022-12-19T11:52:46;7.50;99.90
9984;DHT22;16737;50.932;6.780;2022-12-19T11:55:24;7.40;99.90
9984;DHT22;16737;50.932;6.780;2022-12-19T11:57:56;7.50;99.90
9984;DHT22;16737;50.932;6.780;2022-12-19T12:00:25;7.50;99.90
9984;DHT22;16737;50.932;6.780;2022-12-19T12:06:09;7.50;99.90
9984;DHT22;16737;50.932;6.780;2022-12-19T12:08:47;7.50;99.90
9984;DHT22;16737;50.932;6.780;2022-12-19T12:11:25;7.60;99.90
9984;DHT22;16737;50.932;6.780;2022-12-19T12:14:15;7.60;99.90
9984;DHT22;16737;50.932;6.780;2022-12-19T12:17:17;7.60;99.90
9984;DHT22;16737;50.932;6.780;2022-12-19T12:20:18;7.70;99.90
9984;DHT22;16737;50.932;6.780;2022-12-19T12:23:02;7.70;99.90
9984;DHT22;16737;50.932;6.780;2022-12-19T12:25:51;7.70;99.90
9984;DHT22;16737;50.932;6.780;2022-12-19T12:28:52;7.70;99.90
9984;DHT22;16737;50.932;6.780;2022-12-19T12:31:37;7.70;99.90
9984;DHT22;16737;50.932;6.780;2022-12-19T12:34:35;7.70;99.90
9984;DHT22;16737;50.932;6.780;2022-12-19T12:37:24;7.70;99.90
9984;DHT22;16737;50.932;6.780;2022-12-19T12:40:13;7.70;99.90
9984;DHT22;16737;50.932;6.780;2022-12-19T12:43:07;7.70;99.90
9984;DHT22;16737;50.932;6.780;2022-12-19T12:45:43;7.70;99.90
9984;DHT22;16737;50.932;6.780;2022-12-19T12:48:18;7.70;99.90
9984;DHT22;16737;50.932;6.780;2022-12-19T12:50:52;7.80;99.90
9984;DHT22;16737;50.932;6.780;2022-12-19T12:53:23;7.70;99.90
9984;DHT22;16737;50.932;6.780;2022-12-19T12:55:54;7.70;99.90
9984;DHT22;16737;50.932;6.780;2022-12-19T12:59:04;7.70;99.90
9984;DHT22;16737;50.932;6.780;2022-12-19T13:01:49;7.80;99.90
9984;DHT22;16737;50.932;6.780;2022-12-19T13:04:24;7.80;99.90
9984;DHT22;16737;50.932;6.780;2022-12-19T13:07:20;7.80;99.90
9984;DHT22;16737;50.932;6.780;2022-12-19T13:10:18;7.80;99.90
9984;DHT22;16737;50.932;6.780;2022-12-19T13:12:53;7.80;99.90
9984;DHT22;16737;50.932;6.780;2022-12-19T13:15:37;7.80;99.90
9984;DHT22;16737;50.932;6.780;2022-12-19T13:18:30;7.80;99.90
9984;DHT22;16737;50.932;6.780;2022-12-19T13:21:01;7.80;99.90
9984;DHT22;16737;50.932;6.780;2022-12-19T13:23:50;7.80;99.90
9984;DHT22;16737;50.932;6.780;2022-12-19T13:26:48;7.80;99.90
9984;DHT22;16737;50.932;6.780;2022-12-19T13:32:19;7.80;99.90
9984;DHT22;16737;50.932;6.780;2022-12-19T13:34:52;7.90;99.90
9984;DHT22;16737;50.932;6.780;2022-12-19T13:37:25;7.90;99.90
9984;DHT22;16737;50.932;6.780;2022-12-19T13:40:01;7.90;99.90
9984;DHT22;16737;50.932;6.780;2022-12-19T13:42:37;7.80;99.90
9984;DHT22;16737;50.932;6.780;2022-12-19T13:45:30;7.90;99.90
9984;DHT22;16737;50.932;6.780;2022-12-19T13:48:00;7.90;99.90
9984;DHT22;16737;50.932;6.780;2022-12-19T13:50:32;7.90;99.90
9984;DHT22;16737;50.932;6.780;2022-12-19T13:53:08;7.90;99.90
9984;DHT22;16737;50.932;6.780;2022-12-19T13:55:42;7.90;99.90
9984;DHT22;16737;50.932;6.780;2022-12-19T13:58:20;7.80;99.90
9984;DHT22;16737;50.932;6.780;2022-12-19T14:00:51;7.80;99.90
9984;DHT22;16737;50.932;6.780;2022-12-19T14:03:28;7.80;99.90
9984;DHT22;16737;50.932;6.780;2022-12-19T14:06:05;7.80;99.90
9984;DHT22;16737;50.932;6.780;2022-12-19T14:08:36;7.80;99.90
9984;DHT22;16737;50.932;6.780;2022-12-19T14:11:07;7.80;99.90
9984;DHT22;16737;50.932;6.780;2022-12-19T14:13:42;7.80;99.90
9984;DHT22;16737;50.932;6.780;2022-12-19T14:16:29;7.80;99.90
9984;DHT22;16737;50.932;6.780;2022-12-19T14:18:56;7.80;99.90
9984;DHT22;16737;50.932;6.780;2022-12-19T14:21:26;7.80;99.90
9984;DHT22;16737;50.932;6.780;2022-12-19T14:24:12;7.80;99.90
9984;DHT22;16737;50.932;6.780;2022-12-19T14:26:45;7.80;99.90
9984;DHT22;16737;50.932;6.780;2022-12-19T14:29:20;7.80;99.90
9984;DHT22;16737;50.932;6.780;2022-12-19T14:31:50;7.80;99.90
9984;DHT22;16737;50.932;6.780;2022-12-19T14:34:20;7.80;99.90
9984;DHT22;16737;50.932;6.780;2022-12-19T14:36:52;7.90;99.90
9984;DHT22;16737;50.932;6.780;2022-12-19T14:39:22;7.90;99.90
9984;DHT22;16737;50.932;6.780;2022-12-19T14:42:00;7.90;99.90
9984;DHT22;16737;50.932;6.780;2022-12-19T14:44:50;7.80;99.90
9984;DHT22;16737;50.932;6.780;2022-12-19T14:47:23;7.90;99.90
9984;DHT22;16737;50.932;6.780;2022-12-19T14:49:51;7.80;99.90
9984;DHT22;16737;50.932;6.780;2022-12-19T14:52:40;7.80;99.90
9984;DHT22;16737;50.932;6.780;2022-12-19T14:55:13;7.80;99.90
9984;DHT22;16737;50.932;6.780;2022-12-19T14:57:56;7.80;99.90
9984;DHT22;16737;50.932;6.780;2022-12-19T15:00:26;7.80;99.90
9984;DHT22;16737;50.932;6.780;2022-12-19T15:02:57;7.80;99.90
9984;DHT22;16737;50.932;6.780;2022-12-19T15:05:27;7.80;99.90
9984;DHT22;16737;50.932;6.780;2022-12-19T15:07:57;7.80;99.90
9984;DHT22;16737;50.932;6.780;2022-12-19T15:10:26;7.80;99.90
9984;DHT22;16737;50.932;6.780;2022-12-19T15:12:59;7.80;99.90
9984;DHT22;16737;50.932;6.780;2022-12-19T15:15:50;7.90;99.90
9984;DHT22;16737;50.932;6.780;2022-12-19T15:18:22;7.90;99.90
9984;DHT22;16737;50.932;6.780;2022-12-19T15:20:51;8.00;99.90
9984;DHT22;16737;50.932;6.780;2022-12-19T15:23:20;8.00;99.90
9984;DHT22;16737;50.932;6.780;2022-12-19T15:25:47;8.00;99.90
9984;DHT22;16737;50.932;6.780;2022-12-19T15:28:18;8.10;99.90
9984;DHT22;16737;50.932;6.780;2022-12-19T15:30:50;8.10;99.90
9984;DHT22;16737;50.932;6.780;2022-12-19T15:33:20;8.20;99.90
9984;DHT22;16737;50.932;6.780;2022-12-19T15:35:47;8.20;99.90
9984;DHT22;16737;50.932;6.780;2022-12-19T15:38:15;8.20;99.90
9984;DHT22;16737;50.932;6.780;2022-12-19T15:40:41;8.30;99.90
9984;DHT22;16737;50.932;6.780;2022-12-19T15:43:14;8.30;99.90
9984;DHT22;16737;50.932;6.780;2022-12-19T15:45:45;8.30;99.90
9984;DHT22;16737;50.932;6.780;2022-12-19T15:48:13;8.40;99.90
9984;DHT22;16737;50.932;6.780;2022-12-19T15:50:42;8.40;99.90
9984;DHT22;16737;50.932;6.780;2022-12-19T15:53:18;8.40;99.90
9984;DHT22;16737;50.932;6.780;2022-12-19T15:55:47;8.40;99.90
9984;DHT22;16737;50.932;6.780;2022-12-19T15:58:16;8.50;99.90
9984;DHT22;16737;50.932;6.780;2022-12-19T16:00:48;8.50;99.90
9984;DHT22;16737;50.932;6.780;2022-12-19T16:03:17;8.50;99.90
9984;DHT22;16737;50.932;6.780;2022-12-19T16:05:45;8.50;99.90
9984;DHT22;16737;50.932;6.780;2022-12-19T16:08:14;8.50;99.90
9984;DHT22;16737;50.932;6.780;2022-12-19T16:10:44;8.50;99.90
9984;DHT22;16737;50.932;6.780;2022-12-19T16:13:19;8.50;99.90
9984;DHT22;16737;50.932;6.780;2022-12-19T16:15:48;8.60;99.90
9984;DHT22;16737;50.932;6.780;2022-12-19T16:18:16;8.60;99.90
9984;DHT22;16737;50.932;6.780;2022-12-19T16:20:44;8.60;99.90
9984;DHT22;16737;50.932;6.780;2022-12-19T16:23:12;8.60;99.90
9984;DHT22;16737;50.932;6.780;2022-12-19T16:25:42;8.60;99.90
9984;DHT22;16737;50.932;6.780;2022-12-19T16:28:14;8.60;99.90
9984;DHT22;16737;50.932;6.780;2022-12-19T16:30:45;8.60;99.90
9984;DHT22;16737;50.932;6.780;2022-12-19T16:33:18;8.70;99.90
9984;DHT22;16737;50.932;6.780;2022-12-19T16:35:47;8.60;99.90
9984;DHT22;16737;50.932;6.780;2022-12-19T16:38:14;8.60;99.90
9984;DHT22;16737;50.932;6.780;2022-12-19T16:40:42;8.60;99.90
9984;DHT22;16737;50.932;6.780;2022-12-19T16:43:12;8.60;99.90
9984;DHT22;16737;50.932;6.780;2022-12-19T16:45:41;8.60;99.90
9984;DHT22;16737;50.932;6.780;2022-12-19T16:48:18;8.60;99.90